sensor_id;sensor_type;location;lat;lon;timestamp;pressure;altitude;pressure_sealevel;temperature;humidity
55932;BME280;41837;55.700;37.984;2023-04-03T00:00:42;99880.91;;;4.44;100.00
55932;BME280;41837;55.700;37.984;2023-04-03T00:03:08;99884.41;;;4.43;100.00
55932;BME280;41837;55.700;37.984;2023-04-03T00:05:34;99880.13;;;4.39;100.00
55932;BME280;41837;55.700;37.984;2023-04-03T00:08:01;99875.84;;;4.38;100.00
55932;BME280;41837;55.700;37.984;2023-04-03T00:10:28;99888.91;;;4.29;100.00
55932;BME280;41837;55.700;37.984;2023-04-03T00:12:54;99892.38;;;4.29;100.00
55932;BME280;41837;55.700;37.984;2023-04-03T00:15:20;99891.53;;;4.26;100.00
55932;BME280;41837;55.700;37.984;2023-04-03T00:17:46;99892.44;;;4.25;100.00
55932;BME280;41837;55.700;37.984;2023-04-03T00:20:12;99892.47;;;4.22;100.00
55932;BME280;41837;55.700;37.984;2023-04-03T00:22:38;99893.53;;;4.10;100.00
55932;BME280;41837;55.700;37.984;2023-04-03T00:25:05;99883.22;;;4.05;100.00
55932;BME280;41837;55.700;37.984;2023-04-03T00:27:31;99896.19;;;4.04;100.00
55932;BME280;41837;55.700;37.984;2023-04-03T00:29:58;99898.03;;;3.97;100.00
55932;BME280;41837;55.700;37.984;2023-04-03T00:32:24;99898.09;;;3.91;100.00
55932;BME280;41837;55.700;37.984;2023-04-03T00:34:51;99902.34;;;3.93;100.00
55932;BME280;41837;55.700;37.984;2023-04-03T00:37:16;99893.91;;;3.82;100.00
55932;BME280;41837;55.700;37.984;2023-04-03T00:39:43;99881.81;;;3.83;100.00
55932;BME280;41837;55.700;37.984;2023-04-03T00:42:09;99899.00;;;3.87;100.00
55932;BME280;41837;55.700;37.984;2023-04-03T00:47:03;99903.34;;;3.83;100.00
55932;BME280;41837;55.700;37.984;2023-04-03T00:49:31;99899.09;;;3.81;100.00
55932;BME280;41837;55.700;37.984;2023-04-03T00:51:58;99899.97;;;3.78;100.00
55932;BME280;41837;55.700;37.984;2023-04-03T00:54:26;99902.63;;;3.73;100.00
55932;BME280;41837;55.700;37.984;2023-04-03T00:56:53;99895.72;;;3.76;100.00
55932;BME280;41837;55.700;37.984;2023-04-03T00:59:28;99899.16;;;3.76;100.00
55932;BME280;41837;55.700;37.984;2023-04-03T01:01:56;99896.53;;;3.79;100.00
55932;BME280;41837;55.700;37.984;2023-04-03T01:04:37;99902.53;;;3.80;100.00
55932;BME280;41837;55.700;37.984;2023-04-03T01:09:31;99891.53;;;3.67;100.00
55932;BME280;41837;55.700;37.984;2023-04-03T01:12:16;99898.47;;;3.62;100.00
55932;BME280;41837;55.700;37.984;2023-04-03T01:14:44;99890.84;;;3.49;100.00
55932;BME280;41837;55.700;37.984;2023-04-03T01:17:31;99891.81;;;3.41;100.00
55932;BME280;41837;55.700;37.984;2023-04-03T01:20:22;99895.41;;;3.29;100.00
55932;BME280;41837;55.700;37.984;2023-04-03T01:25:53;99894.63;;;3.21;100.00
55932;BME280;41837;55.700;37.984;2023-04-03T01:28:27;99896.41;;;3.14;100.00
55932;BME280;41837;55.700;37.984;2023-04-03T01:31:03;99894.72;;;3.10;100.00
55932;BME280;41837;55.700;37.984;2023-04-03T01:33:35;99903.44;;;3.03;100.00
55932;BME280;41837;55.700;37.984;2023-04-03T01:36:04;99899.16;;;2.97;100.00
55932;BME280;41837;55.700;37.984;2023-04-03T01:38:31;99898.25;;;3.03;100.00
55932;BME280;41837;55.700;37.984;2023-04-03T01:40:58;99900.88;;;2.98;100.00
55932;BME280;41837;55.700;37.984;2023-04-03T01:43:24;99900.16;;;2.85;100.00
55932;BME280;41837;55.700;37.984;2023-04-03T01:45:50;99903.59;;;2.84;100.00
55932;BME280;41837;55.700;37.984;2023-04-03T01:48:18;99915.66;;;2.85;100.00
55932;BME280;41837;55.700;37.984;2023-04-03T01:50:44;99908.81;;;2.75;100.00
55932;BME280;41837;55.700;37.984;2023-04-03T01:53:10;99914.06;;;2.66;100.00
55932;BME280;41837;55.700;37.984;2023-04-03T01:55:36;99916.69;;;2.59;100.00
55932;BME280;41837;55.700;37.984;2023-04-03T01:58:03;99915.88;;;2.53;100.00
55932;BME280;41837;55.700;37.984;2023-04-03T02:00:29;99922.78;;;2.51;100.00
55932;BME280;41837;55.700;37.984;2023-04-03T02:02:56;99921.13;;;2.43;100.00
55932;BME280;41837;55.700;37.984;2023-04-03T02:05:23;99922.88;;;2.40;100.00
55932;BME280;41837;55.700;37.984;2023-04-03T02:07:49;99916.91;;;2.32;100.00
55932;BME280;41837;55.700;37.984;2023-04-03T02:10:16;99922.97;;;2.28;100.00
55932;BME280;41837;55.700;37.984;2023-04-03T02:12:45;99924.72;;;2.19;100.00
55932;BME280;41837;55.700;37.984;2023-04-03T02:15:11;99919.59;;;2.16;100.00
55932;BME280;41837;55.700;37.984;2023-04-03T02:17:38;99913.63;;;2.03;100.00
55932;BME280;41837;55.700;37.984;2023-04-03T02:20:05;99911.09;;;1.96;100.00
55932;BME280;41837;55.700;37.984;2023-04-03T02:22:32;99921.44;;;1.93;100.00
55932;BME280;41837;55.700;37.984;2023-04-03T02:24:58;99928.31;;;1.94;100.00
55932;BME280;41837;55.700;37.984;2023-04-03T02:27:25;99927.50;;;1.81;100.00
55932;BME280;41837;55.700;37.984;2023-04-03T02:29:51;99936.13;;;1.74;100.00
55932;BME280;41837;55.700;37.984;2023-04-03T02:32:17;99939.56;;;1.70;100.00
55932;BME280;41837;55.700;37.984;2023-04-03T02:34:44;99911.28;;;1.53;100.00
55932;BME280;41837;55.700;37.984;2023-04-03T02:37:12;99935.31;;;1.59;100.00
55932;BME280;41837;55.700;37.984;2023-04-03T02:39:39;99933.63;;;1.55;100.00
55932;BME280;41837;55.700;37.984;2023-04-03T02:42:06;99937.03;;;1.53;100.00
55932;BME280;41837;55.700;37.984;2023-04-03T02:44:33;99940.50;;;1.52;100.00
55932;BME280;41837;55.700;37.984;2023-04-03T02:46:59;99942.25;;;1.46;100.00
55932;BME280;41837;55.700;37.984;2023-04-03T02:49:25;99939.66;;;1.36;100.00
55932;BME280;41837;55.700;37.984;2023-04-03T02:51:51;99939.72;;;1.31;100.00
55932;BME280;41837;55.700;37.984;2023-04-03T02:54:18;99929.44;;;1.16;100.00
55932;BME280;41837;55.700;37.984;2023-04-03T02:56:49;99937.16;;;1.17;100.00
55932;BME280;41837;55.700;37.984;2023-04-03T02:59:16;99950.00;;;1.20;100.00
55932;BME280;41837;55.700;37.984;2023-04-03T03:01:43;99927.72;;;1.08;100.00
55932;BME280;41837;55.700;37.984;2023-04-03T03:04:09;99951.75;;;1.04;100.00
55932;BME280;41837;55.700;37.984;2023-04-03T03:06:35;99943.19;;;1.02;100.00
55932;BME280;41837;55.700;37.984;2023-04-03T03:09:03;99956.91;;;1.03;100.00
55932;BME280;41837;55.700;37.984;2023-04-03T03:11:29;99952.63;;;0.99;100.00
55932;BME280;41837;55.700;37.984;2023-04-03T03:13:57;99953.47;;;1.01;100.00
55932;BME280;41837;55.700;37.984;2023-04-03T03:16:25;99950.06;;;0.99;100.00
55932;BME280;41837;55.700;37.984;2023-04-03T03:18:51;99962.91;;;1.09;100.00
55932;BME280;41837;55.700;37.984;2023-04-03T03:21:17;99962.91;;;1.11;100.00
55932;BME280;41837;55.700;37.984;2023-04-03T03:23:44;99964.63;;;1.04;100.00
55932;BME280;41837;55.700;37.984;2023-04-03T03:26:10;99961.19;;;0.91;100.00
55932;BME280;41837;55.700;37.984;2023-04-03T03:28:38;99959.50;;;0.93;100.00
55932;BME280;41837;55.700;37.984;2023-04-03T03:31:06;99968.91;;;0.95;100.00
55932;BME280;41837;55.700;37.984;2023-04-03T03:33:33;99962.06;;;0.93;100.00
55932;BME280;41837;55.700;37.984;2023-04-03T03:36:00;99974.94;;;1.04;100.00
55932;BME280;41837;55.700;37.984;2023-04-03T03:38:26;99981.81;;;1.05;100.00
55932;BME280;41837;55.700;37.984;2023-04-03T03:40:53;99974.94;;;1.04;100.00
55932;BME280;41837;55.700;37.984;2023-04-03T03:43:21;99971.47;;;1.16;100.00
55932;BME280;41837;55.700;37.984;2023-04-03T03:45:52;99976.59;;;1.27;100.00
55932;BME280;41837;55.700;37.984;2023-04-03T03:48:19;99964.56;;;1.41;100.00
55932;BME280;41837;55.700;37.984;2023-04-03T03:50:47;99962.81;;;1.53;100.00
55932;BME280;41837;55.700;37.984;2023-04-03T03:53:17;99966.22;;;1.58;100.00
55932;BME280;41837;55.700;37.984;2023-04-03T03:55:43;99961.06;;;1.64;100.00
55932;BME280;41837;55.700;37.984;2023-04-03T03:58:09;99960.16;;;1.76;100.00
55932;BME280;41837;55.700;37.984;2023-04-03T04:00:36;99959.25;;;1.89;100.00
55932;BME280;41837;55.700;37.984;2023-04-03T04:03:03;99962.69;;;1.93;100.00
55932;BME280;41837;55.700;37.984;2023-04-03T04:05:31;99954.88;;;2.11;100.00
55932;BME280;41837;55.700;37.984;2023-04-03T04:07:59;99947.13;;;2.14;100.00
55932;BME280;41837;55.700;37.984;2023-04-03T04:10:26;99946.94;;;2.40;100.00
55932;BME280;41837;55.700;37.984;2023-04-03T04:12:53;99947.69;;;2.58;100.00
55932;BME280;41837;55.700;37.984;2023-04-03T04:15:23;99951.84;;;2.77;100.00
55932;BME280;41837;55.700;37.984;2023-04-03T04:17:52;99941.38;;;2.96;100.00
55932;BME280;41837;55.700;37.984;2023-04-03T04:20:19;99942.69;;;3.37;100.00
55932;BME280;41837;55.700;37.984;2023-04-03T04:22:47;99936.91;;;3.89;100.00
55932;BME280;41837;55.700;37.984;2023-04-03T04:25:14;99921.22;;;4.61;100.00
55932;BME280;41837;55.700;37.984;2023-04-03T04:27:40;99913.16;;;5.28;100.00
55932;BME280;41837;55.700;37.984;2023-04-03T04:30:07;99895.88;;;5.72;100.00
55932;BME280;41837;55.700;37.984;2023-04-03T04:32:34;99896.59;;;6.19;100.00
55932;BME280;41837;55.700;37.984;2023-04-03T04:35:02;99898.22;;;6.25;100.00
55932;BME280;41837;55.700;37.984;2023-04-03T04:37:31;99888.31;;;6.03;100.00
55932;BME280;41837;55.700;37.984;2023-04-03T04:39:58;99881.91;;;6.20;100.00
55932;BME280;41837;55.700;37.984;2023-04-03T04:42:25;99887.94;;;6.20;100.00
55932;BME280;41837;55.700;37.984;2023-04-03T04:44:51;99893.34;;;6.48;100.00
55932;BME280;41837;55.700;37.984;2023-04-03T04:47:18;99885.69;;;6.78;100.00
55932;BME280;41837;55.700;37.984;2023-04-03T04:49:44;99876.78;;;6.52;100.00
55932;BME280;41837;55.700;37.984;2023-04-03T04:52:11;99876.31;;;6.72;100.00
55932;BME280;41837;55.700;37.984;2023-04-03T04:54:39;99878.72;;;7.13;100.00
55932;BME280;41837;55.700;37.984;2023-04-03T04:57:05;99862.38;;;7.71;100.00
55932;BME280;41837;55.700;37.984;2023-04-03T04:59:32;99878.94;;;7.37;100.00
55932;BME280;41837;55.700;37.984;2023-04-03T05:01:58;99879.84;;;6.68;100.00
55932;BME280;41837;55.700;37.984;2023-04-03T05:04:26;99881.25;;;6.47;100.00
55932;BME280;41837;55.700;37.984;2023-04-03T05:06:58;99885.63;;;6.45;100.00
55932;BME280;41837;55.700;37.984;2023-04-03T05:09:28;99881.75;;;6.26;100.00
55932;BME280;41837;55.700;37.984;2023-04-03T05:11:54;99892.97;;;5.87;100.00
55932;BME280;41837;55.700;37.984;2023-04-03T05:14:24;99885.19;;;5.87;100.00
55932;BME280;41837;55.700;37.984;2023-04-03T05:16:52;99893.38;;;5.67;100.00
55932;BME280;41837;55.700;37.984;2023-04-03T05:19:21;99897.69;;;5.67;100.00
55932;BME280;41837;55.700;37.984;2023-04-03T05:22:02;99893.59;;;5.56;100.00
55932;BME280;41837;55.700;37.984;2023-04-03T05:24:28;99889.53;;;5.43;100.00
55932;BME280;41837;55.700;37.984;2023-04-03T05:26:54;99910.25;;;5.45;100.00
55932;BME280;41837;55.700;37.984;2023-04-03T05:29:21;99908.38;;;5.51;100.00
55932;BME280;41837;55.700;37.984;2023-04-03T05:31:49;99924.13;;;5.42;100.00
55932;BME280;41837;55.700;37.984;2023-04-03T05:34:16;99923.88;;;5.54;100.00
55932;BME280;41837;55.700;37.984;2023-04-03T05:36:44;99927.16;;;5.64;100.00
55932;BME280;41837;55.700;37.984;2023-04-03T05:39:36;99923.38;;;5.81;100.00
55932;BME280;41837;55.700;37.984;2023-04-03T05:42:05;99920.13;;;5.71;100.00
55932;BME280;41837;55.700;37.984;2023-04-03T05:44:45;99916.47;;;5.79;100.00
55932;BME280;41837;55.700;37.984;2023-04-03T05:47:13;99909.16;;;6.00;100.00
55932;BME280;41837;55.700;37.984;2023-04-03T05:49:52;99919.94;;;6.21;100.00
55932;BME280;41837;55.700;37.984;2023-04-03T05:52:30;99911.88;;;6.33;100.00
55932;BME280;41837;55.700;37.984;2023-04-03T05:54:57;99913.44;;;6.03;100.00
55932;BME280;41837;55.700;37.984;2023-04-03T05:57:26;99901.25;;;6.06;100.00
55932;BME280;41837;55.700;37.984;2023-04-03T05:59:53;99913.91;;;6.20;100.00
55932;BME280;41837;55.700;37.984;2023-04-03T06:02:22;99904.78;;;6.40;100.00
55932;BME280;41837;55.700;37.984;2023-04-03T06:04:50;99916.94;;;6.39;100.00
55932;BME280;41837;55.700;37.984;2023-04-03T06:07:19;99905.66;;;6.40;100.00
55932;BME280;41837;55.700;37.984;2023-04-03T06:09:50;99907.38;;;6.77;100.00
55932;BME280;41837;55.700;37.984;2023-04-03T06:12:19;99903.75;;;6.83;100.00
55932;BME280;41837;55.700;37.984;2023-04-03T06:14:46;99900.91;;;6.92;100.00
55932;BME280;41837;55.700;37.984;2023-04-03T06:17:15;99904.25;;;6.97;100.00
55932;BME280;41837;55.700;37.984;2023-04-03T06:19:41;99905.63;;;7.10;100.00
55932;BME280;41837;55.700;37.984;2023-04-03T06:22:08;99902.56;;;7.29;100.00
55932;BME280;41837;55.700;37.984;2023-04-03T06:24:35;99899.34;;;7.52;100.00
55932;BME280;41837;55.700;37.984;2023-04-03T06:27:01;99890.88;;;7.74;100.00
55932;BME280;41837;55.700;37.984;2023-04-03T06:29:27;99891.81;;;7.73;100.00
55932;BME280;41837;55.700;37.984;2023-04-03T06:31:53;99879.22;;;7.87;100.00
55932;BME280;41837;55.700;37.984;2023-04-03T06:34:20;99890.72;;;7.80;100.00
55932;BME280;41837;55.700;37.984;2023-04-03T06:36:46;99886.88;;;7.93;100.00
55932;BME280;41837;55.700;37.984;2023-04-03T06:39:17;99887.38;;;8.33;100.00
55932;BME280;41837;55.700;37.984;2023-04-03T06:41:44;99892.88;;;8.78;100.00
55932;BME280;41837;55.700;37.984;2023-04-03T06:44:10;99895.28;;;8.85;100.00
55932;BME280;41837;55.700;37.984;2023-04-03T06:46:38;99891.84;;;8.84;100.00
55932;BME280;41837;55.700;37.984;2023-04-03T06:49:05;99889.03;;;8.64;100.00
55932;BME280;41837;55.700;37.984;2023-04-03T06:51:33;99903.38;;;9.02;100.00
55932;BME280;41837;55.700;37.984;2023-04-03T06:54:00;99900.88;;;9.49;100.00
55932;BME280;41837;55.700;37.984;2023-04-03T06:56:27;99896.59;;;9.94;99.54
55932;BME280;41837;55.700;37.984;2023-04-03T06:58:55;99892.84;;;9.30;98.35
55932;BME280;41837;55.700;37.984;2023-04-03T07:01:23;99909.72;;;9.93;95.93
55932;BME280;41837;55.700;37.984;2023-04-03T07:03:51;99880.59;;;10.70;92.84
55932;BME280;41837;55.700;37.984;2023-04-03T07:06:18;99896.81;;;10.98;90.58
55932;BME280;41837;55.700;37.984;2023-04-03T07:08:45;99892.03;;;10.88;87.22
55932;BME280;41837;55.700;37.984;2023-04-03T07:11:12;99889.84;;;10.56;87.20
55932;BME280;41837;55.700;37.984;2023-04-03T07:13:39;99895.81;;;11.22;85.46
55932;BME280;41837;55.700;37.984;2023-04-03T07:16:06;99895.91;;;10.99;83.28
55932;BME280;41837;55.700;37.984;2023-04-03T07:18:33;99895.22;;;10.74;88.18
55932;BME280;41837;55.700;37.984;2023-04-03T07:20:59;99894.78;;;10.42;89.61
55932;BME280;41837;55.700;37.984;2023-04-03T07:23:25;99893.03;;;10.85;88.72
55932;BME280;41837;55.700;37.984;2023-04-03T07:25:52;99896.22;;;10.71;89.76
55932;BME280;41837;55.700;37.984;2023-04-03T07:28:20;99890.59;;;10.80;87.45
55932;BME280;41837;55.700;37.984;2023-04-03T07:30:54;99899.47;;;10.56;87.54
55932;BME280;41837;55.700;37.984;2023-04-03T07:33:22;99895.66;;;11.06;86.55
55932;BME280;41837;55.700;37.984;2023-04-03T07:35:49;99897.84;;;10.94;87.53
55932;BME280;41837;55.700;37.984;2023-04-03T07:38:15;99892.91;;;11.09;86.26
55932;BME280;41837;55.700;37.984;2023-04-03T07:40:47;99894.81;;;11.05;86.99
55932;BME280;41837;55.700;37.984;2023-04-03T07:43:14;99888.84;;;11.22;86.27
55932;BME280;41837;55.700;37.984;2023-04-03T07:45:41;99907.66;;;11.10;84.74
55932;BME280;41837;55.700;37.984;2023-04-03T07:48:12;99882.44;;;11.09;87.16
55932;BME280;41837;55.700;37.984;2023-04-03T07:50:43;99895.28;;;10.72;86.97
55932;BME280;41837;55.700;37.984;2023-04-03T07:53:09;99901.84;;;10.82;88.75
55932;BME280;41837;55.700;37.984;2023-04-03T07:55:36;99903.97;;;10.95;89.84
55932;BME280;41837;55.700;37.984;2023-04-03T07:58:13;99902.84;;;11.00;88.33
55932;BME280;41837;55.700;37.984;2023-04-03T08:00:40;99892.56;;;10.96;88.30
55932;BME280;41837;55.700;37.984;2023-04-03T08:03:08;99900.03;;;11.05;87.43
55932;BME280;41837;55.700;37.984;2023-04-03T08:05:40;99899.56;;;10.95;88.07
55932;BME280;41837;55.700;37.984;2023-04-03T08:08:08;99891.06;;;11.11;87.48
55932;BME280;41837;55.700;37.984;2023-04-03T08:10:34;99893.63;;;11.12;86.58
55932;BME280;41837;55.700;37.984;2023-04-03T08:13:01;99895.69;;;10.83;88.45
55932;BME280;41837;55.700;37.984;2023-04-03T08:15:27;99886.16;;;10.82;88.70
55932;BME280;41837;55.700;37.984;2023-04-03T08:17:54;99897.41;;;11.05;87.80
55932;BME280;41837;55.700;37.984;2023-04-03T08:20:20;99899.28;;;10.81;87.81
55932;BME280;41837;55.700;37.984;2023-04-03T08:22:46;99898.38;;;11.02;88.46
55932;BME280;41837;55.700;37.984;2023-04-03T08:25:12;99898.38;;;10.82;86.28
55932;BME280;41837;55.700;37.984;2023-04-03T08:27:39;99899.69;;;11.13;86.55
55932;BME280;41837;55.700;37.984;2023-04-03T08:30:06;99897.94;;;11.13;85.97
55932;BME280;41837;55.700;37.984;2023-04-03T08:32:34;99906.22;;;11.02;86.33
55932;BME280;41837;55.700;37.984;2023-04-03T08:35:03;99902.88;;;10.78;87.81
55932;BME280;41837;55.700;37.984;2023-04-03T08:37:29;99907.06;;;11.03;84.54
55932;BME280;41837;55.700;37.984;2023-04-03T08:39:56;99906.16;;;11.04;85.30
55932;BME280;41837;55.700;37.984;2023-04-03T08:45:15;99910.38;;;10.66;83.54
55932;BME280;41837;55.700;37.984;2023-04-03T08:47:51;99917.75;;;10.78;82.82
55932;BME280;41837;55.700;37.984;2023-04-03T08:50:20;99918.22;;;10.43;81.94
55932;BME280;41837;55.700;37.984;2023-04-03T08:53:01;99916.91;;;10.33;83.49
55932;BME280;41837;55.700;37.984;2023-04-03T08:55:39;99918.56;;;10.36;82.15
55932;BME280;41837;55.700;37.984;2023-04-03T09:00:53;99931.03;;;10.27;81.55
55932;BME280;41837;55.700;37.984;2023-04-03T09:03:22;99928.78;;;10.18;81.84
55932;BME280;41837;55.700;37.984;2023-04-03T09:06:09;99940.06;;;10.19;81.57
55932;BME280;41837;55.700;37.984;2023-04-03T09:08:44;99928.38;;;10.05;81.85
55932;BME280;41837;55.700;37.984;2023-04-03T09:17:00;99942.97;;;10.35;83.56
55932;BME280;41837;55.700;37.984;2023-04-03T09:21:58;99950.69;;;10.38;84.93
55932;BME280;41837;55.700;37.984;2023-04-03T09:24:26;99945.69;;;10.32;83.98
55932;BME280;41837;55.700;37.984;2023-04-03T09:27:05;99946.19;;;10.63;83.89
55932;BME280;41837;55.700;37.984;2023-04-03T09:29:38;99950.41;;;10.45;83.28
55932;BME280;41837;55.700;37.984;2023-04-03T09:32:32;99930.38;;;10.67;83.48
55932;BME280;41837;55.700;37.984;2023-04-03T09:35:24;99947.28;;;10.80;81.42
55932;BME280;41837;55.700;37.984;2023-04-03T09:37:53;99944.16;;;10.92;81.01
55932;BME280;41837;55.700;37.984;2023-04-03T09:42:56;99950.72;;;11.02;81.68
55932;BME280;41837;55.700;37.984;2023-04-03T09:45:31;99947.78;;;11.10;79.92
55932;BME280;41837;55.700;37.984;2023-04-03T09:50:35;99958.53;;;10.60;82.83
55932;BME280;41837;55.700;37.984;2023-04-03T09:53:06;99950.88;;;10.98;82.26
55932;BME280;41837;55.700;37.984;2023-04-03T09:55:42;99953.34;;;10.80;81.25
55932;BME280;41837;55.700;37.984;2023-04-03T09:58:27;99950.03;;;10.77;78.99
55932;BME280;41837;55.700;37.984;2023-04-03T10:00:59;99949.81;;;11.04;78.73
55932;BME280;41837;55.700;37.984;2023-04-03T10:03:32;99947.72;;;11.12;78.26
55932;BME280;41837;55.700;37.984;2023-04-03T10:06:01;99950.22;;;11.35;78.14
55932;BME280;41837;55.700;37.984;2023-04-03T10:08:32;99948.28;;;11.60;76.48
55932;BME280;41837;55.700;37.984;2023-04-03T10:11:28;99945.88;;;11.94;71.91
55932;BME280;41837;55.700;37.984;2023-04-03T10:13:57;99951.00;;;11.77;71.40
55932;BME280;41837;55.700;37.984;2023-04-03T10:16:35;99939.22;;;11.67;71.25
55932;BME280;41837;55.700;37.984;2023-04-03T10:22:04;99944.19;;;11.93;72.68
55932;BME280;41837;55.700;37.984;2023-04-03T10:25:07;99948.28;;;11.60;71.43
55932;BME280;41837;55.700;37.984;2023-04-03T10:28:10;99944.34;;;11.89;71.05
55932;BME280;41837;55.700;37.984;2023-04-03T10:30:50;99944.28;;;11.90;70.45
55932;BME280;41837;55.700;37.984;2023-04-03T10:41:56;99941.28;;;12.00;70.61
55932;BME280;41837;55.700;37.984;2023-04-03T10:44:41;99930.63;;;11.84;71.22
55932;BME280;41837;55.700;37.984;2023-04-03T10:50:09;99939.22;;;12.06;71.40
55932;BME280;41837;55.700;37.984;2023-04-03T10:52:46;99932.63;;;12.17;71.17
55932;BME280;41837;55.700;37.984;2023-04-03T10:55:19;99930.13;;;12.52;69.61
55932;BME280;41837;55.700;37.984;2023-04-03T10:57:49;99934.06;;;12.24;69.96
55932;BME280;41837;55.700;37.984;2023-04-03T11:00:22;99936.34;;;12.49;69.82
55932;BME280;41837;55.700;37.984;2023-04-03T11:02:58;99933.97;;;12.44;68.83
55932;BME280;41837;55.700;37.984;2023-04-03T11:05:36;99937.84;;;12.55;69.06
55932;BME280;41837;55.700;37.984;2023-04-03T11:11:38;99924.31;;;12.08;67.76
55932;BME280;41837;55.700;37.984;2023-04-03T11:14:13;99919.06;;;11.88;68.47
55932;BME280;41837;55.700;37.984;2023-04-03T11:17:04;99922.28;;;11.94;68.89
55932;BME280;41837;55.700;37.984;2023-04-03T11:19:54;99928.53;;;11.92;68.24
55932;BME280;41837;55.700;37.984;2023-04-03T11:22:36;99927.53;;;11.94;68.69
55932;BME280;41837;55.700;37.984;2023-04-03T11:25:28;99925.78;;;11.95;67.69
55932;BME280;41837;55.700;37.984;2023-04-03T11:27:59;99926.78;;;11.72;66.23
55932;BME280;41837;55.700;37.984;2023-04-03T11:33:19;99926.47;;;11.59;68.09
55932;BME280;41837;55.700;37.984;2023-04-03T11:35:52;99923.84;;;11.59;69.18
55932;BME280;41837;55.700;37.984;2023-04-03T11:38:26;99930.09;;;11.56;68.63
55932;BME280;41837;55.700;37.984;2023-04-03T11:40:56;99922.72;;;11.46;69.06
55932;BME280;41837;55.700;37.984;2023-04-03T11:43:24;99928.16;;;11.41;68.82
55932;BME280;41837;55.700;37.984;2023-04-03T11:46:02;99929.34;;;11.34;70.13
55932;BME280;41837;55.700;37.984;2023-04-03T11:51:01;99938.63;;;11.20;70.86
55932;BME280;41837;55.700;37.984;2023-04-03T11:53:35;99935.66;;;11.28;71.11
55932;BME280;41837;55.700;37.984;2023-04-03T11:56:03;99932.53;;;11.41;72.29
55932;BME280;41837;55.700;37.984;2023-04-03T11:58:31;99938.41;;;11.25;72.25
55932;BME280;41837;55.700;37.984;2023-04-03T12:01:06;99935.13;;;11.20;73.10
55932;BME280;41837;55.700;37.984;2023-04-03T12:08:44;99935.34;;;11.15;74.04
55932;BME280;41837;55.700;37.984;2023-04-03T12:13:42;99944.28;;;11.10;74.82
55932;BME280;41837;55.700;37.984;2023-04-03T12:16:46;99933.69;;;11.13;76.06
55932;BME280;41837;55.700;37.984;2023-04-03T12:29:23;99933.22;;;11.03;76.45
55932;BME280;41837;55.700;37.984;2023-04-03T12:48:56;99939.38;;;10.81;79.90
55932;BME280;41837;55.700;37.984;2023-04-03T12:51:39;99946.69;;;10.73;80.92
55932;BME280;41837;55.700;37.984;2023-04-03T12:54:19;99950.75;;;10.80;82.12
55932;BME280;41837;55.700;37.984;2023-04-03T12:56:48;99952.47;;;10.81;83.43
55932;BME280;41837;55.700;37.984;2023-04-03T12:59:25;99957.03;;;10.76;84.26
55932;BME280;41837;55.700;37.984;2023-04-03T13:02:00;99940.72;;;10.70;84.63
55932;BME280;41837;55.700;37.984;2023-04-03T13:04:27;99954.59;;;10.72;84.26
55932;BME280;41837;55.700;37.984;2023-04-03T13:06:53;99949.91;;;10.80;84.46
55932;BME280;41837;55.700;37.984;2023-04-03T13:09:30;99953.63;;;10.74;84.33
55932;BME280;41837;55.700;37.984;2023-04-03T13:12:07;99946.69;;;10.73;84.75
55932;BME280;41837;55.700;37.984;2023-04-03T13:14:36;99941.50;;;10.72;84.40
55932;BME280;41837;55.700;37.984;2023-04-03T13:17:16;99947.03;;;10.64;83.58
55932;BME280;41837;55.700;37.984;2023-04-03T13:19:43;99949.75;;;10.62;84.56
55932;BME280;41837;55.700;37.984;2023-04-03T13:22:25;99958.38;;;10.64;84.42
55932;BME280;41837;55.700;37.984;2023-04-03T13:24:53;99950.59;;;10.63;85.10
55932;BME280;41837;55.700;37.984;2023-04-03T13:27:21;99952.25;;;10.64;87.18
55932;BME280;41837;55.700;37.984;2023-04-03T13:29:53;99954.81;;;10.66;86.97
55932;BME280;41837;55.700;37.984;2023-04-03T13:32:23;99955.47;;;10.71;86.75
55932;BME280;41837;55.700;37.984;2023-04-03T13:34:50;99955.97;;;10.58;86.62
55932;BME280;41837;55.700;37.984;2023-04-03T13:37:23;99950.41;;;10.45;86.76
55932;BME280;41837;55.700;37.984;2023-04-03T13:42:37;99952.66;;;10.55;89.05
55932;BME280;41837;55.700;37.984;2023-04-03T13:45:26;99960.25;;;10.61;90.20
55932;BME280;41837;55.700;37.984;2023-04-03T13:48:16;99953.88;;;10.68;89.99
55932;BME280;41837;55.700;37.984;2023-04-03T13:53:32;99957.91;;;10.75;90.21
55932;BME280;41837;55.700;37.984;2023-04-03T13:56:06;99954.97;;;10.62;89.29
55932;BME280;41837;55.700;37.984;2023-04-03T13:58:34;99957.63;;;10.61;88.25
55932;BME280;41837;55.700;37.984;2023-04-03T14:01:21;99959.22;;;10.65;87.94
55932;BME280;41837;55.700;37.984;2023-04-03T14:03:57;99956.03;;;10.57;86.74
55932;BME280;41837;55.700;37.984;2023-04-03T14:06:24;99957.59;;;10.62;86.25
55932;BME280;41837;55.700;37.984;2023-04-03T14:08:51;99951.59;;;10.59;87.80
55932;BME280;41837;55.700;37.984;2023-04-03T14:11:22;99947.34;;;10.56;87.72
55932;BME280;41837;55.700;37.984;2023-04-03T14:13:50;99955.88;;;10.61;86.72
55932;BME280;41837;55.700;37.984;2023-04-03T14:16:23;99954.09;;;10.62;87.56
55932;BME280;41837;55.700;37.984;2023-04-03T14:18:51;99950.88;;;10.55;86.67
55932;BME280;41837;55.700;37.984;2023-04-03T14:21:20;99945.41;;;10.61;87.41
55932;BME280;41837;55.700;37.984;2023-04-03T14:23:47;99946.75;;;10.50;87.76
55932;BME280;41837;55.700;37.984;2023-04-03T14:26:17;99944.91;;;10.52;87.23
55932;BME280;41837;55.700;37.984;2023-04-03T14:28:45;99951.03;;;10.52;85.35
55932;BME280;41837;55.700;37.984;2023-04-03T14:31:16;99951.81;;;10.54;83.09
55932;BME280;41837;55.700;37.984;2023-04-03T14:33:44;99941.53;;;10.50;84.29
55932;BME280;41837;55.700;37.984;2023-04-03T14:36:13;99948.69;;;10.44;84.41